Time;durP1;ratioP1;P1;durP2;ratioP2;P2;SDS_P1;SDS_P2;PMS_P1;PMS_P2;Temp;Humidity;BMP_temperature;BMP_pressure;BME280_temperature;BME280_humidity;BME280_pressure;Samples;Min_cycle;Max_cycle;Signal;HPM_P1;HPM_P2
2022/03/04 00:01:37;;;;;;;9.37;3.13;;;8.10;99.90;;;;;;5066739;28;20196;-66
2022/03/04 00:04:03;;;;;;;8.03;3.43;;;8.10;99.90;;;;;;5066859;28;20202;-66
2022/03/04 00:06:30;;;;;;;8.30;2.80;;;8.10;99.90;;;;;;5063404;28;20557;-66
2022/03/04 00:08:56;;;;;;;13.10;3.20;;;8.10;99.90;;;;;;5088139;28;20200;-67
2022/03/04 00:11:22;;;;;;;11.53;3.27;;;8.10;99.90;;;;;;5079717;28;20197;-67
2022/03/04 00:13:49;;;;;;;9.07;3.20;;;8.10;99.90;;;;;;5066909;28;20222;-67
2022/03/04 00:16:15;;;;;;;12.20;3.43;;;8.10;99.90;;;;;;5064386;28;20293;-67
2022/03/04 00:18:41;;;;;;;12.50;3.70;;;8.10;99.90;;;;;;5059450;28;20205;-67
2022/03/04 00:21:09;;;;;;;7.37;3.20;;;8.00;99.90;;;;;;5058426;28;20217;-67
2022/03/04 00:23:36;;;;;;;7.40;3.10;;;7.90;99.90;;;;;;5060366;28;20431;-67
2022/03/04 00:26:07;;;;;;;8.57;3.20;;;7.90;99.90;;;;;;5039758;28;20211;-67
2022/03/04 00:28:33;;;;;;;12.70;3.93;;;7.90;99.90;;;;;;5060114;28;20190;-65
2022/03/04 00:30:59;;;;;;;14.80;2.97;;;7.90;99.90;;;;;;5065734;28;20198;-66
2022/03/04 00:33:26;;;;;;;8.40;3.20;;;7.90;99.90;;;;;;5071699;28;20187;-65
2022/03/04 00:35:54;;;;;;;6.37;3.00;;;7.90;99.90;;;;;;5067737;28;20285;-66
2022/03/04 00:38:21;;;;;;;8.20;3.17;;;7.90;99.90;;;;;;5048349;28;20189;-65
2022/03/04 00:40:48;;;;;;;10.67;3.10;;;7.90;99.90;;;;;;5068876;28;20590;-64
2022/03/04 00:43:17;;;;;;;9.03;2.70;;;7.90;99.90;;;;;;5069405;28;20336;-65
2022/03/04 00:45:45;;;;;;;11.67;3.60;;;8.00;99.90;;;;;;5070947;28;20271;-66
2022/03/04 00:48:11;;;;;;;7.27;3.00;;;8.00;99.90;;;;;;5052824;28;20190;-66
2022/03/04 00:50:38;;;;;;;11.20;3.67;;;8.00;99.90;;;;;;5071029;28;20205;-66
2022/03/04 00:53:04;;;;;;;11.30;3.60;;;8.00;99.90;;;;;;5069986;28;20728;-66
2022/03/04 00:55:30;;;;;;;8.80;3.20;;;8.00;99.90;;;;;;5071458;28;20620;-65
2022/03/04 00:57:56;;;;;;;9.07;3.30;;;8.00;99.90;;;;;;5062811;28;20760;-65
2022/03/04 01:00:23;;;;;;;11.03;3.40;;;8.00;99.90;;;;;;5070139;28;20199;-66
2022/03/04 01:02:51;;;;;;;11.57;3.27;;;8.00;99.90;;;;;;5061530;28;20748;-66
2022/03/04 01:05:18;;;;;;;11.43;3.20;;;7.90;99.90;;;;;;5067679;28;20615;-65
2022/03/04 01:07:47;;;;;;;9.80;3.50;;;7.90;99.90;;;;;;5068129;28;20267;-65
2022/03/04 01:10:16;;;;;;;8.03;3.03;;;7.90;99.90;;;;;;5071808;28;20283;-66
2022/03/04 01:12:42;;;;;;;10.87;3.10;;;7.90;99.90;;;;;;5070443;28;20664;-65
2022/03/04 01:15:09;;;;;;;10.40;2.87;;;7.90;99.90;;;;;;5069942;28;20635;-65
2022/03/04 01:17:36;;;;;;;19.27;3.20;;;7.90;99.90;;;;;;5081715;28;20190;-65
2022/03/04 01:20:05;;;;;;;12.60;3.47;;;7.90;99.90;;;;;;5070230;28;20183;-65
2022/03/04 01:22:32;;;;;;;6.53;2.80;;;7.90;99.90;;;;;;5069914;28;20277;-65
2022/03/04 01:24:59;;;;;;;8.23;3.20;;;7.90;99.90;;;;;;5050757;28;20885;-65
2022/03/04 01:27:25;;;;;;;10.60;3.40;;;7.90;99.90;;;;;;5064493;28;20223;-66
2022/03/04 01:29:51;;;;;;;7.77;3.00;;;7.90;99.90;;;;;;5063925;28;20182;-65
2022/03/04 01:32:18;;;;;;;11.27;3.23;;;7.90;99.90;;;;;;5073841;28;20265;-65
2022/03/04 01:34:44;;;;;;;9.67;3.30;;;7.90;99.90;;;;;;5073992;28;20209;-65
2022/03/04 01:37:10;;;;;;;9.93;3.83;;;7.90;99.90;;;;;;5089341;28;20565;-66
2022/03/04 01:39:37;;;;;;;5.83;2.97;;;7.80;99.90;;;;;;5071190;28;20182;-67
2022/03/04 01:42:04;;;;;;;7.70;2.93;;;7.80;99.90;;;;;;5070194;28;20201;-66
2022/03/04 01:44:30;;;;;;;7.50;3.07;;;7.80;99.90;;;;;;5070381;28;20191;-65
2022/03/04 01:46:57;;;;;;;12.93;3.50;;;7.80;99.90;;;;;;5069987;28;20230;-66
2022/03/04 01:49:23;;;;;;;6.80;2.73;;;7.70;99.90;;;;;;5052333;28;20194;-66
2022/03/04 01:51:49;;;;;;;11.90;3.20;;;7.80;99.90;;;;;;5069701;28;20195;-66
2022/03/04 01:54:15;;;;;;;10.30;3.03;;;7.80;99.90;;;;;;5069149;28;20289;-65
2022/03/04 01:56:42;;;;;;;10.67;2.90;;;7.80;99.90;;;;;;5067938;28;21019;-65
2022/03/04 01:59:08;;;;;;;11.50;2.90;;;7.80;99.90;;;;;;5064626;28;20203;-67
2022/03/04 02:01:35;;;;;;;10.97;3.50;;;7.90;99.90;;;;;;5067042;28;20194;-66
2022/03/04 02:04:02;;;;;;;8.80;3.57;;;7.80;99.90;;;;;;5069091;28;20282;-65
2022/03/04 02:06:29;;;;;;;14.73;3.43;;;7.80;99.90;;;;;;5068321;28;20655;-65
2022/03/04 02:08:55;;;;;;;9.20;3.00;;;7.80;99.90;;;;;;5045026;28;20282;-67
2022/03/04 02:11:21;;;;;;;13.00;3.00;;;7.80;99.90;;;;;;5066867;28;20193;-66
2022/03/04 02:13:47;;;;;;;6.23;2.73;;;7.80;99.90;;;;;;5067901;28;20190;-66
2022/03/04 02:16:38;;;;;;;7.23;2.63;;;7.80;99.90;;;;;;5067664;28;20618;-65
2022/03/04 02:19:04;;;;;;;10.17;3.00;;;7.70;99.90;;;;;;5069903;28;20194;-65
2022/03/04 02:21:33;;;;;;;10.23;2.87;;;7.80;99.90;;;;;;5069744;28;20195;-66
2022/03/04 02:23:59;;;;;;;10.23;3.27;;;7.80;99.90;;;;;;5070152;28;20197;-66
2022/03/04 02:26:26;;;;;;;11.17;2.83;;;7.80;99.90;;;;;;5067230;28;20780;-66
2022/03/04 02:28:52;;;;;;;10.40;2.97;;;7.90;99.90;;;;;;5062449;28;20530;-66
2022/03/04 02:31:21;;;;;;;7.60;2.80;;;7.90;99.90;;;;;;5058945;28;20986;-65
2022/03/04 02:33:50;;;;;;;11.47;3.40;;;7.90;99.90;;;;;;5068923;28;20551;-67
2022/03/04 02:36:17;;;;;;;6.20;2.73;;;7.90;99.90;;;;;;5068232;28;20623;-65
2022/03/04 02:38:44;;;;;;;10.07;3.03;;;7.90;99.90;;;;;;5067846;28;20199;-65
2022/03/04 02:41:10;;;;;;;11.43;3.10;;;7.90;99.90;;;;;;5069137;28;20205;-65
2022/03/04 02:43:36;;;;;;;13.07;3.97;;;7.90;99.90;;;;;;5069264;28;20302;-66
2022/03/04 02:46:02;;;;;;;7.50;2.83;;;7.90;99.90;;;;;;5049649;28;20651;-66
2022/03/04 02:48:29;;;;;;;10.00;3.10;;;7.90;99.90;;;;;;5068693;28;20202;-65
2022/03/04 02:50:55;;;;;;;8.70;3.23;;;7.90;99.90;;;;;;5068987;28;20222;-65
2022/03/04 02:53:21;;;;;;;5.93;3.27;;;7.80;99.90;;;;;;5068861;28;20210;-65
2022/03/04 02:55:47;;;;;;;8.20;2.97;;;7.80;99.90;;;;;;5066162;28;20557;-66
2022/03/04 02:58:14;;;;;;;8.37;2.63;;;7.80;99.90;;;;;;5069127;28;20274;-65
2022/03/04 03:00:40;;;;;;;14.17;2.80;;;7.80;99.90;;;;;;5066828;28;20218;-66
2022/03/04 03:03:07;;;;;;;9.20;3.20;;;7.80;99.90;;;;;;5066064;28;20579;-67
2022/03/04 03:05:33;;;;;;;13.73;2.90;;;7.80;99.90;;;;;;5066224;28;20195;-65
2022/03/04 03:07:59;;;;;;;10.17;2.63;;;7.90;99.90;;;;;;5066621;28;20284;-66
2022/03/04 03:10:26;;;;;;;9.07;3.20;;;7.90;99.90;;;;;;5067598;28;20183;-66
2022/03/04 03:12:52;;;;;;;11.43;3.07;;;7.90;99.90;;;;;;5049188;28;20184;-65
2022/03/04 03:15:18;;;;;;;8.50;3.03;;;7.90;99.90;;;;;;5062042;28;20675;-65
2022/03/04 03:17:45;;;;;;;11.60;3.70;;;7.90;99.90;;;;;;5068608;28;20256;-66
2022/03/04 03:20:12;;;;;;;7.03;3.07;;;7.90;99.90;;;;;;5067065;28;20191;-65
2022/03/04 03:22:38;;;;;;;6.73;2.90;;;7.90;99.90;;;;;;5066455;28;20204;-65
2022/03/04 03:25:06;;;;;;;9.50;3.43;;;7.80;99.90;;;;;;5068269;28;20280;-65
2022/03/04 03:27:32;;;;;;;8.87;3.30;;;7.70;99.90;;;;;;5065806;28;20225;-65
2022/03/04 03:29:58;;;;;;;8.10;3.27;;;7.70;99.90;;;;;;5068091;28;20179;-67
2022/03/04 03:32:25;;;;;;;8.33;3.60;;;7.70;99.90;;;;;;5056749;28;20194;-65
2022/03/04 03:34:51;;;;;;;10.20;3.77;;;7.70;99.90;;;;;;5067442;28;20194;-65
2022/03/04 03:37:18;;;;;;;7.73;3.13;;;7.60;99.90;;;;;;5067620;28;20198;-66
2022/03/04 03:39:44;;;;;;;9.17;3.20;;;7.60;99.90;;;;;;5058389;28;20218;-65
2022/03/04 03:42:10;;;;;;;5.67;3.00;;;7.60;99.90;;;;;;5058105;28;20279;-65
2022/03/04 03:44:36;;;;;;;11.87;3.83;;;7.60;99.90;;;;;;5062611;28;20198;-65
2022/03/04 03:47:03;;;;;;;17.80;3.30;;;7.60;99.90;;;;;;5068602;28;20214;-65
2022/03/04 03:49:30;;;;;;;10.37;3.57;;;7.60;99.90;;;;;;5066900;28;20226;-65
2022/03/04 03:51:56;;;;;;;10.30;3.37;;;7.60;99.90;;;;;;5064599;28;20199;-66
2022/03/04 03:54:22;;;;;;;6.23;3.50;;;7.70;99.90;;;;;;5066609;28;20186;-66
2022/03/04 03:56:49;;;;;;;9.23;3.37;;;7.70;99.90;;;;;;5049187;28;20183;-65
2022/03/04 03:59:15;;;;;;;8.70;3.60;;;7.70;99.90;;;;;;5068137;28;20198;-65
2022/03/04 04:01:42;;;;;;;7.07;3.17;;;7.60;99.90;;;;;;5062940;28;20282;-67
2022/03/04 04:04:11;;;;;;;9.70;4.40;;;7.60;99.90;;;;;;5062710;28;20201;-66
2022/03/04 04:06:41;;;;;;;8.23;3.37;;;7.50;99.90;;;;;;5067451;28;20241;-65
2022/03/04 04:09:08;;;;;;;10.07;3.20;;;7.50;99.90;;;;;;5068570;28;20321;-66
2022/03/04 04:11:36;;;;;;;13.33;4.07;;;7.50;99.90;;;;;;5066964;28;20198;-66
2022/03/04 04:14:08;;;;;;;7.63;3.53;;;7.40;99.90;;;;;;5066348;28;20199;-66
2022/03/04 04:16:35;;;;;;;10.43;3.83;;;7.40;99.90;;;;;;5078758;28;20209;-67
2022/03/04 04:19:02;;;;;;;8.33;3.57;;;7.40;99.90;;;;;;5071582;28;20194;-65
2022/03/04 04:21:29;;;;;;;9.00;3.50;;;7.40;99.90;;;;;;5069318;28;20199;-65
2022/03/04 04:23:56;;;;;;;9.57;3.87;;;7.30;99.90;;;;;;5053400;28;20203;-66
2022/03/04 04:26:23;;;;;;;10.23;3.80;;;7.30;99.90;;;;;;5067898;28;20223;-67
2022/03/04 04:28:51;;;;;;;10.83;3.87;;;7.30;99.90;;;;;;5070680;28;20304;-65
2022/03/04 04:31:18;;;;;;;10.27;3.50;;;7.30;99.90;;;;;;5068228;28;20663;-65
2022/03/04 04:33:44;;;;;;;7.53;3.33;;;7.30;99.90;;;;;;5067710;28;20197;-65
2022/03/04 04:36:10;;;;;;;4.63;3.30;;;7.40;99.90;;;;;;5064869;28;20243;-67
2022/03/04 04:38:37;;;;;;;8.53;4.00;;;7.30;99.90;;;;;;5070879;28;20213;-66
2022/03/04 04:41:03;;;;;;;11.10;3.20;;;7.40;99.90;;;;;;5062245;28;20198;-66
2022/03/04 04:43:29;;;;;;;12.97;4.00;;;7.40;99.90;;;;;;5052015;28;20334;-65
2022/03/04 04:45:56;;;;;;;9.97;3.83;;;7.50;99.90;;;;;;5071222;28;20244;-66
2022/03/04 04:48:22;;;;;;;7.40;3.43;;;7.40;99.90;;;;;;5070071;28;20205;-66
2022/03/04 04:50:48;;;;;;;8.73;3.60;;;7.40;99.90;;;;;;5071005;28;20193;-65
2022/03/04 04:53:14;;;;;;;12.23;3.83;;;7.50;99.90;;;;;;5072090;28;20182;-65
2022/03/04 04:55:41;;;;;;;8.80;3.60;;;7.50;99.90;;;;;;5069652;28;20195;-65
2022/03/04 04:58:07;;;;;;;7.37;3.57;;;7.50;99.90;;;;;;5070608;28;20273;-66
2022/03/04 05:00:33;;;;;;;8.40;4.10;;;7.50;99.90;;;;;;5051947;28;20630;-67
2022/03/04 05:02:59;;;;;;;7.50;3.27;;;7.60;99.90;;;;;;5071533;28;20268;-66
2022/03/04 05:05:25;;;;;;;5.67;3.27;;;7.60;99.90;;;;;;5061811;28;20732;-66
2022/03/04 05:07:52;;;;;;;8.03;3.53;;;7.60;99.90;;;;;;5068062;28;20555;-66
2022/03/04 05:10:19;;;;;;;11.30;3.77;;;7.70;99.90;;;;;;5069115;28;20240;-65
2022/03/04 05:12:45;;;;;;;8.83;3.90;;;7.70;99.90;;;;;;5052358;28;20671;-65
2022/03/04 05:15:11;;;;;;;7.87;3.80;;;7.80;99.90;;;;;;5068196;28;20197;-66
2022/03/04 05:17:38;;;;;;;8.53;3.80;;;7.80;99.90;;;;;;5053043;28;20691;-66
2022/03/04 05:20:05;;;;;;;10.73;3.63;;;7.80;99.90;;;;;;5069420;28;20291;-66
2022/03/04 05:22:32;;;;;;;5.07;2.90;;;7.80;99.90;;;;;;5069116;28;20543;-67
2022/03/04 05:24:58;;;;;;;8.23;3.37;;;7.90;99.90;;;;;;5068628;28;20218;-66
2022/03/04 05:27:24;;;;;;;5.77;2.93;;;7.90;99.90;;;;;;5067269;28;20209;-66
2022/03/04 05:29:50;;;;;;;9.20;3.20;;;8.00;99.90;;;;;;5069709;28;20191;-65
2022/03/04 05:32:17;;;;;;;7.27;3.50;;;8.00;99.90;;;;;;5070730;28;20214;-65
2022/03/04 05:34:43;;;;;;;6.87;3.30;;;8.10;99.90;;;;;;5048492;28;20286;-67
2022/03/04 05:37:09;;;;;;;8.43;3.20;;;8.10;99.90;;;;;;5065888;28;20195;-65
2022/03/04 05:39:36;;;;;;;10.80;3.70;;;8.10;99.90;;;;;;5070724;28;20853;-66
2022/03/04 05:42:02;;;;;;;8.63;3.13;;;8.10;99.90;;;;;;5069274;28;20242;-66
2022/03/04 05:44:29;;;;;;;8.13;3.47;;;8.20;99.90;;;;;;5069487;28;20194;-67
2022/03/04 05:46:55;;;;;;;11.50;2.90;;;8.20;99.90;;;;;;5068908;28;20233;-65
2022/03/04 05:49:22;;;;;;;10.87;3.33;;;8.20;99.90;;;;;;5069563;28;20197;-66
2022/03/04 05:51:48;;;;;;;8.50;3.13;;;8.20;99.90;;;;;;5069371;28;20178;-65
2022/03/04 05:54:14;;;;;;;10.17;3.17;;;8.30;99.90;;;;;;5068970;28;20983;-66
2022/03/04 05:56:41;;;;;;;16.10;3.07;;;8.30;99.90;;;;;;5068246;28;20205;-66
2022/03/04 05:59:07;;;;;;;11.10;3.50;;;8.40;99.90;;;;;;5067638;28;20195;-66
2022/03/04 06:01:33;;;;;;;8.17;3.40;;;8.40;99.90;;;;;;5068499;28;20199;-66
2022/03/04 06:04:00;;;;;;;12.40;3.63;;;8.40;99.90;;;;;;5052052;28;20194;-66
2022/03/04 06:06:26;;;;;;;10.17;3.77;;;8.50;99.90;;;;;;5063304;28;20215;-67
2022/03/04 06:08:53;;;;;;;7.40;3.47;;;8.60;99.90;;;;;;5067398;28;20195;-66
2022/03/04 06:11:19;;;;;;;8.73;3.20;;;8.60;99.90;;;;;;5068223;28;20187;-67
2022/03/04 06:13:46;;;;;;;9.90;3.20;;;8.60;99.90;;;;;;5065435;28;20259;-66
2022/03/04 06:16:12;;;;;;;7.40;3.17;;;8.70;99.90;;;;;;5051049;28;20194;-65
2022/03/04 06:18:38;;;;;;;5.83;2.70;;;8.70;99.90;;;;;;5050624;28;20333;-66
2022/03/04 06:21:05;;;;;;;7.03;3.10;;;8.70;99.90;;;;;;5067575;28;20563;-67
2022/03/04 06:23:31;;;;;;;10.07;3.17;;;8.70;99.90;;;;;;5063077;28;20198;-66
2022/03/04 06:25:58;;;;;;;8.23;2.97;;;8.80;99.90;;;;;;5067188;28;20210;-67
2022/03/04 06:28:27;;;;;;;6.40;2.60;;;8.80;99.90;;;;;;5068203;28;20191;-66
2022/03/04 06:30:54;;;;;;;7.23;2.87;;;8.90;99.90;;;;;;5059573;28;20191;-66
2022/03/04 06:33:32;;;;;;;6.40;2.70;;;8.90;99.90;;;;;;5066985;28;20215;-66
2022/03/04 06:36:15;;;;;;;7.13;3.07;;;8.90;99.90;;;;;;5076779;28;20198;-66
2022/03/04 06:38:44;;;;;;;7.83;3.10;;;9.00;99.90;;;;;;5062502;28;20566;-66
2022/03/04 06:41:13;;;;;;;9.53;2.83;;;9.10;99.90;;;;;;5050234;28;20191;-67
2022/03/04 06:43:40;;;;;;;12.23;2.90;;;9.10;99.90;;;;;;5068719;28;20190;-66
2022/03/04 06:46:07;;;;;;;8.87;2.87;;;9.10;99.90;;;;;;5069908;28;20194;-66
2022/03/04 06:48:34;;;;;;;6.23;2.73;;;9.20;99.90;;;;;;5061083;28;20555;-66
2022/03/04 06:51:01;;;;;;;6.97;3.13;;;9.20;99.90;;;;;;5044907;28;20650;-66
2022/03/04 06:53:28;;;;;;;9.40;2.97;;;9.30;99.90;;;;;;5069327;28;20791;-65
2022/03/04 06:55:54;;;;;;;4.70;2.60;;;9.30;99.90;;;;;;5066005;28;20313;-66
2022/03/04 06:58:21;;;;;;;9.30;3.00;;;9.40;99.90;;;;;;5050026;28;20191;-66
2022/03/04 07:00:47;;;;;;;7.83;3.00;;;9.50;99.90;;;;;;5067982;28;20195;-66
2022/03/04 07:03:14;;;;;;;9.37;2.87;;;9.50;99.90;;;;;;5051115;28;20670;-66
2022/03/04 07:05:43;;;;;;;11.47;3.20;;;9.50;99.90;;;;;;5068750;28;20328;-66
2022/03/04 07:08:13;;;;;;;10.17;3.80;;;9.50;99.90;;;;;;5062641;28;20233;-66
2022/03/04 07:10:42;;;;;;;5.17;2.63;;;9.50;99.90;;;;;;5063331;28;20187;-66
2022/03/04 07:13:10;;;;;;;11.40;3.03;;;9.50;99.90;;;;;;5066252;28;20283;-66
2022/03/04 07:15:36;;;;;;;7.27;2.90;;;9.50;99.90;;;;;;5065177;28;20194;-65
2022/03/04 07:18:03;;;;;;;8.47;3.20;;;9.60;99.90;;;;;;5067384;28;20208;-66
2022/03/04 07:20:30;;;;;;;6.80;2.97;;;9.60;99.90;;;;;;5050159;28;20205;-66
2022/03/04 07:22:56;;;;;;;9.23;3.20;;;9.60;99.90;;;;;;5067632;28;20249;-66
2022/03/04 07:25:24;;;;;;;3.97;2.67;;;9.70;99.90;;;;;;5064119;28;20754;-66
2022/03/04 07:27:50;;;;;;;7.57;2.83;;;9.70;99.90;;;;;;5086177;28;20250;-65
2022/03/04 07:30:18;;;;;;;5.43;2.87;;;9.70;99.90;;;;;;5067894;28;20226;-65
2022/03/04 07:32:46;;;;;;;8.90;3.03;;;9.80;99.90;;;;;;5068498;28;20187;-65
2022/03/04 07:35:13;;;;;;;14.97;3.00;;;9.90;99.90;;;;;;5068069;28;20293;-67
2022/03/04 07:37:42;;;;;;;9.23;3.23;;;9.90;99.90;;;;;;5065850;28;20199;-67
2022/03/04 07:40:13;;;;;;;5.97;2.80;;;9.90;99.90;;;;;;5058450;28;20198;-67
2022/03/04 07:42:41;;;;;;;7.83;2.97;;;9.90;99.90;;;;;;5061301;28;20251;-67
2022/03/04 07:45:09;;;;;;;8.93;3.10;;;10.00;99.90;;;;;;5066636;28;20194;-67
2022/03/04 07:47:37;;;;;;;6.70;2.70;;;10.00;99.90;;;;;;5058075;28;20743;-67
2022/03/04 07:50:11;;;;;;;6.90;3.07;;;10.00;99.90;;;;;;5065023;28;20197;-67
2022/03/04 07:52:37;;;;;;;10.20;3.50;;;10.10;99.90;;;;;;5077577;28;20290;-67
2022/03/04 07:55:08;;;;;;;9.40;3.77;;;10.10;99.90;;;;;;5065767;28;20197;-67
2022/03/04 07:57:35;;;;;;;7.10;2.90;;;10.30;99.90;;;;;;5063082;28;20207;-67
2022/03/04 08:00:05;;;;;;;9.13;3.10;;;10.30;99.90;;;;;;5064772;28;20195;-67
2022/03/04 08:02:32;;;;;;;13.10;3.50;;;10.40;99.90;;;;;;5070704;28;20197;-67
2022/03/04 08:04:58;;;;;;;7.97;2.87;;;10.40;99.90;;;;;;5063601;28;20183;-68
2022/03/04 08:07:24;;;;;;;9.20;2.80;;;10.40;99.90;;;;;;5065840;28;20298;-67
2022/03/04 08:09:51;;;;;;;6.80;2.90;;;10.40;99.90;;;;;;5056985;28;20214;-67
2022/03/04 08:12:17;;;;;;;6.00;3.00;;;10.40;99.90;;;;;;5062788;28;20198;-67
2022/03/04 08:14:43;;;;;;;6.07;3.10;;;10.40;99.90;;;;;;5067783;28;20190;-67
2022/03/04 08:17:10;;;;;;;7.10;3.17;;;10.50;99.90;;;;;;5056925;28;20582;-67
2022/03/04 08:19:39;;;;;;;13.27;3.00;;;10.50;99.90;;;;;;5057287;28;20199;-67
2022/03/04 08:22:06;;;;;;;11.37;3.03;;;10.50;99.90;;;;;;5066896;28;20205;-67
2022/03/04 08:24:33;;;;;;;11.40;2.97;;;10.50;99.90;;;;;;5062738;28;20547;-67
2022/03/04 08:26:59;;;;;;;10.93;3.20;;;10.50;99.90;;;;;;5046461;28;20229;-67
2022/03/04 08:29:25;;;;;;;6.40;3.33;;;10.50;99.90;;;;;;5062735;28;20229;-67
2022/03/04 08:31:52;;;;;;;6.30;2.90;;;10.60;99.90;;;;;;5065453;28;20805;-67
2022/03/04 08:34:18;;;;;;;7.87;2.57;;;10.60;99.90;;;;;;5046637;28;20210;-68
2022/03/04 08:36:45;;;;;;;5.17;2.60;;;10.70;99.90;;;;;;5060359;28;20221;-67
2022/03/04 08:39:11;;;;;;;6.10;2.93;;;10.80;99.90;;;;;;5064733;28;20256;-67
2022/03/04 08:41:38;;;;;;;12.93;2.93;;;10.80;99.90;;;;;;5059721;28;20240;-67
2022/03/04 08:44:05;;;;;;;5.57;3.00;;;10.90;99.90;;;;;;5062226;28;20195;-67
2022/03/04 08:46:31;;;;;;;11.50;3.00;;;11.00;99.90;;;;;;5043419;28;20353;-66
2022/03/04 08:48:58;;;;;;;5.87;2.83;;;11.10;99.90;;;;;;5064623;28;20191;-67
2022/03/04 08:51:26;;;;;;;10.53;2.77;;;11.10;99.90;;;;;;5061829;28;20203;-66
2022/03/04 08:53:56;;;;;;;10.47;3.37;;;11.00;99.90;;;;;;5064570;28;20367;-67
2022/03/04 08:56:23;;;;;;;12.37;3.20;;;10.80;99.90;;;;;;5062202;28;20190;-67
2022/03/04 08:58:50;;;;;;;8.47;3.00;;;10.90;99.90;;;;;;5048581;28;20195;-67
2022/03/04 09:01:16;;;;;;;5.73;2.50;;;11.00;99.90;;;;;;5065762;28;20203;-67
2022/03/04 09:03:42;;;;;;;8.50;3.10;;;11.00;99.90;;;;;;5079287;28;20206;-67
2022/03/04 09:06:09;;;;;;;7.97;3.10;;;11.10;99.90;;;;;;5063955;28;20225;-67
2022/03/04 09:08:35;;;;;;;5.70;2.80;;;11.30;99.90;;;;;;5051651;28;20243;-67
2022/03/04 09:11:02;;;;;;;5.43;2.70;;;11.40;99.90;;;;;;5066941;28;20187;-66
2022/03/04 09:13:28;;;;;;;12.30;3.13;;;11.30;99.90;;;;;;5060952;28;20187;-67
2022/03/04 09:15:55;;;;;;;10.40;3.57;;;11.30;99.90;;;;;;5067582;28;20360;-66
2022/03/04 09:18:21;;;;;;;7.47;3.17;;;11.30;99.90;;;;;;5063266;28;20190;-66
2022/03/04 09:20:48;;;;;;;9.10;2.70;;;11.30;99.90;;;;;;5066027;28;20275;-65
2022/03/04 09:23:15;;;;;;;6.30;2.83;;;11.50;99.90;;;;;;5065820;28;20194;-66
2022/03/04 09:25:41;;;;;;;6.37;2.60;;;11.60;99.90;;;;;;5067575;28;20210;-66
2022/03/04 09:28:07;;;;;;;10.93;2.70;;;11.70;99.90;;;;;;5067385;28;20219;-66
2022/03/04 09:30:36;;;;;;;8.87;2.83;;;11.60;99.90;;;;;;5061370;28;20186;-67
2022/03/04 09:33:03;;;;;;;6.37;3.00;;;11.60;99.90;;;;;;5067540;28;20213;-67
2022/03/04 09:35:30;;;;;;;12.10;2.93;;;11.60;99.90;;;;;;5066774;28;20222;-67
2022/03/04 09:37:56;;;;;;;6.27;2.77;;;11.70;99.90;;;;;;5071738;28;20769;-67
2022/03/04 09:40:23;;;;;;;4.03;2.80;;;11.90;99.90;;;;;;5080898;28;20198;-66
2022/03/04 09:42:50;;;;;;;11.40;2.93;;;12.20;99.90;;;;;;5063668;28;20201;-66
2022/03/04 09:45:16;;;;;;;7.80;4.07;;;12.40;99.90;;;;;;5041160;28;20183;-66
2022/03/04 09:47:43;;;;;;;8.37;3.70;;;12.40;99.90;;;;;;5062168;28;20229;-66
2022/03/04 09:50:10;;;;;;;7.83;2.97;;;12.30;99.90;;;;;;5063648;28;20247;-66
2022/03/04 09:52:36;;;;;;;6.33;3.40;;;12.10;99.90;;;;;;5065435;28;20589;-66
2022/03/04 09:55:04;;;;;;;10.43;3.13;;;12.10;99.90;;;;;;5068697;28;20190;-66
2022/03/04 09:57:30;;;;;;;7.20;2.50;;;12.10;99.90;;;;;;5066927;28;20573;-67
2022/03/04 09:59:57;;;;;;;7.00;2.80;;;12.30;99.90;;;;;;5065081;28;20186;-67
2022/03/04 10:02:25;;;;;;;6.67;2.63;;;12.60;99.90;;;;;;5071214;28;20187;-67
2022/03/04 10:05:03;;;;;;;5.90;2.43;;;12.80;99.90;;;;;;5063166;28;20218;-68
2022/03/04 10:07:49;;;;;;;8.87;2.63;;;13.10;99.90;;;;;;5064544;28;20221;-67
2022/03/04 10:10:18;;;;;;;8.33;2.80;;;13.20;99.90;;;;;;5080315;28;20655;-67
2022/03/04 10:12:55;;;;;;;7.77;2.83;;;13.60;99.90;;;;;;5056442;28;20195;-67
2022/03/04 10:15:23;;;;;;;4.13;2.53;;;13.30;99.90;;;;;;5062955;28;20716;-66
2022/03/04 10:18:05;;;;;;;7.47;2.80;;;12.80;99.90;;;;;;5079630;28;20233;-67
2022/03/04 10:20:37;;;;;;;7.30;2.73;;;15.40;99.90;;;;;;5072859;28;20190;-68
2022/03/04 10:23:17;;;;;;;7.97;2.87;;;16.20;99.90;;;;;;5069648;28;20187;-67
2022/03/04 10:25:50;;;;;;;7.00;2.70;;;15.20;99.90;;;;;;5068460;28;20207;-67
2022/03/04 10:28:17;;;;;;;7.53;3.07;;;14.30;99.90;;;;;;5069737;28;20293;-66
2022/03/04 10:30:48;;;;;;;8.27;3.20;;;13.50;99.90;;;;;;5070348;28;20658;-68
2022/03/04 10:33:18;;;;;;;9.77;2.93;;;13.60;99.90;;;;;;5084445;28;20194;-66
2022/03/04 10:35:50;;;;;;;7.73;2.97;;;13.50;99.90;;;;;;5089917;28;20232;-66
2022/03/04 10:38:26;;;;;;;5.90;2.87;;;13.30;99.90;;;;;;5090414;28;20290;-66
2022/03/04 10:40:52;;;;;;;7.27;3.03;;;12.90;99.90;;;;;;5088885;28;20182;-66
2022/03/04 10:43:25;;;;;;;5.67;3.30;;;12.90;99.90;;;;;;5069595;28;20551;-66
2022/03/04 10:46:05;;;;;;;5.10;3.40;;;12.80;99.90;;;;;;5060298;28;20193;-67
2022/03/04 10:48:32;;;;;;;5.63;3.17;;;13.80;99.90;;;;;;5092891;28;20190;-67
2022/03/04 10:51:04;;;;;;;5.30;2.93;;;13.60;99.90;;;;;;5069578;28;20193;-66
2022/03/04 10:53:33;;;;;;;6.50;3.40;;;13.30;99.90;;;;;;5051614;28;20178;-66
2022/03/04 10:56:05;;;;;;;7.67;3.37;;;12.90;99.90;;;;;;5067318;28;20519;-66
2022/03/04 10:58:39;;;;;;;8.43;3.83;;;12.60;99.90;;;;;;5068741;28;20197;-66
2022/03/04 11:01:16;;;;;;;7.80;3.33;;;12.60;99.90;;;;;;5067973;28;20183;-67
2022/03/04 11:03:43;;;;;;;6.37;3.83;;;12.80;99.90;;;;;;5076322;28;20190;-66
2022/03/04 11:06:15;;;;;;;7.40;4.10;;;12.80;99.90;;;;;;5067229;28;20189;-67
2022/03/04 11:08:45;;;;;;;9.10;3.60;;;12.80;99.90;;;;;;5068071;28;20198;-66
2022/03/04 11:11:12;;;;;;;5.93;3.33;;;12.60;99.90;;;;;;5069172;28;20249;-66
2022/03/04 11:13:39;;;;;;;6.07;3.53;;;12.30;99.90;;;;;;5067554;28;20182;-67
2022/03/04 11:16:07;;;;;;;4.13;3.40;;;12.10;99.90;;;;;;5062087;28;21157;-67
2022/03/04 11:18:35;;;;;;;7.97;3.87;;;12.10;99.90;;;;;;5066455;28;20197;-66
2022/03/04 11:21:04;;;;;;;6.10;3.53;;;12.00;99.90;;;;;;5069662;28;20243;-66
2022/03/04 11:23:35;;;;;;;6.77;3.77;;;12.10;99.90;;;;;;5068770;28;20208;-66
2022/03/04 11:26:06;;;;;;;6.60;3.00;;;12.00;99.90;;;;;;5065275;28;20305;-66
2022/03/04 11:28:54;;;;;;;8.03;3.50;;;11.90;99.90;;;;;;5075497;28;20198;-66
2022/03/04 11:31:24;;;;;;;4.80;2.97;;;11.90;99.90;;;;;;5068664;28;20202;-66
2022/03/04 11:34:03;;;;;;;5.23;3.00;;;12.00;99.90;;;;;;5067020;28;20682;-67
2022/03/04 11:36:39;;;;;;;3.53;2.83;;;12.20;99.90;;;;;;5066868;28;20277;-67
2022/03/04 11:39:13;;;;;;;4.87;3.33;;;12.20;99.90;;;;;;5050556;28;20640;-66
2022/03/04 11:42:07;;;;;;;5.97;2.97;;;12.40;99.90;;;;;;5068427;28;20736;-66
2022/03/04 11:44:53;;;;;;;7.23;3.30;;;12.60;99.90;;;;;;5067783;28;20190;-66
2022/03/04 11:47:20;;;;;;;8.67;3.43;;;12.70;99.90;;;;;;5061328;28;20222;-66
2022/03/04 11:49:47;;;;;;;4.27;3.27;;;12.80;99.90;;;;;;5050701;28;20175;-65
2022/03/04 11:52:25;;;;;;;7.20;3.37;;;13.00;99.90;;;;;;5067395;28;20179;-66
2022/03/04 11:54:52;;;;;;;4.63;3.10;;;12.90;99.90;;;;;;5066632;28;20186;-66
2022/03/04 11:57:28;;;;;;;6.43;3.43;;;12.70;99.90;;;;;;5066215;28;20175;-66
2022/03/04 11:59:56;;;;;;;7.43;3.53;;;12.60;99.90;;;;;;5051002;28;20182;-66
2022/03/04 12:02:43;;;;;;;7.07;3.10;;;12.50;99.90;;;;;;5074279;28;20703;-66
2022/03/04 12:08:06;;;;;;;7.37;3.50;;;12.20;99.90;;;;;;5066131;28;20571;-66
2022/03/04 12:10:48;;;;;;;4.60;3.20;;;12.10;99.90;;;;;;5067275;28;20179;-66
2022/03/04 12:13:29;;;;;;;7.33;3.57;;;12.10;99.90;;;;;;5067729;28;20610;-66
2022/03/04 12:16:05;;;;;;;6.20;3.43;;;12.00;99.90;;;;;;5068106;28;20217;-67
2022/03/04 12:18:36;;;;;;;5.97;3.30;;;12.00;99.90;;;;;;5057640;28;20767;-66
2022/03/04 12:21:13;;;;;;;5.10;3.40;;;12.00;99.90;;;;;;5067241;28;20232;-67
2022/03/04 12:23:52;;;;;;;10.67;3.07;;;12.00;99.90;;;;;;5068471;28;20247;-66
2022/03/04 12:26:24;;;;;;;7.30;3.77;;;11.90;99.90;;;;;;5066228;28;20539;-66
2022/03/04 12:29:03;;;;;;;6.10;3.43;;;11.90;99.90;;;;;;5066931;28;20345;-67
2022/03/04 12:31:40;;;;;;;7.07;3.43;;;11.90;99.90;;;;;;5066845;28;20195;-66
2022/03/04 12:34:27;;;;;;;6.27;3.27;;;11.90;99.90;;;;;;5067895;28;20210;-66
2022/03/04 12:36:53;;;;;;;5.03;3.27;;;11.80;99.90;;;;;;5052187;28;20183;-66
2022/03/04 12:39:21;;;;;;;8.40;3.23;;;11.70;99.90;;;;;;5072409;28;20278;-66
2022/03/04 12:41:53;;;;;;;6.30;3.60;;;11.70;99.90;;;;;;5071454;28;20183;-66
2022/03/04 12:44:19;;;;;;;5.93;3.10;;;11.60;99.90;;;;;;5070695;28;20695;-66
2022/03/04 12:46:47;;;;;;;4.50;3.30;;;11.50;99.90;;;;;;5069278;28;20218;-67
2022/03/04 12:49:16;;;;;;;5.83;3.50;;;11.60;99.90;;;;;;5050098;28;22063;-66
2022/03/04 12:51:45;;;;;;;6.33;3.50;;;11.60;99.90;;;;;;5069222;28;20231;-67
2022/03/04 12:54:28;;;;;;;8.33;3.53;;;11.50;99.90;;;;;;5071595;28;20182;-66
2022/03/04 12:57:04;;;;;;;6.20;3.40;;;11.60;99.90;;;;;;5053271;28;20715;-66
2022/03/04 12:59:47;;;;;;;8.90;3.50;;;11.50;99.90;;;;;;5070026;28;20257;-67